< < Back
Terminal Aerodrome Forecast


Current Version              Previous Versions:   1  2  3  4  5  6  7  8  9  

Terminal Aerodrome Forecast

227
FTUS42 KTAE 280946 AAA
TAFABY
TAF AMD
KABY 280946Z 2810/2906 09003KT P6SM SCT250
     FM281300 08009KT P6SM SCT060=

Latest METAR

149
SAUS70 KWBC 281400 RRD
MTRABY
METAR KABY 281353Z 11009KT 10SM SCT018 29/23 A3011 RMK AO2 SLP195
T02890228


USA.gov is the U.S. government's official web portal to all federal, state and local government web resources and services.